createdAt,value
2018-05-18T00:02:16.676Z,84.50
2018-05-18T00:04:44.132Z,84.60
2018-05-18T00:07:10.483Z,84.50
2018-05-18T00:09:36.859Z,84.90
2018-05-18T00:12:03.973Z,85.20
2018-05-18T00:14:30.254Z,85.10
2018-05-18T00:16:56.532Z,85.30
2018-05-18T00:19:22.955Z,85.70
2018-05-18T00:21:49.315Z,85.80
2018-05-18T00:24:15.719Z,86.40
2018-05-18T00:26:42.092Z,86.30
2018-05-18T00:29:08.408Z,86.20
2018-05-18T00:31:34.718Z,86.60
2018-05-18T00:34:01.748Z,89.00
2018-05-18T00:36:28.156Z,89.00
2018-05-18T00:38:54.458Z,86.80
2018-05-18T00:41:20.790Z,85.80
2018-05-18T00:43:47.963Z,86.00
2018-05-18T00:46:15.101Z,86.50
2018-05-18T00:48:41.446Z,86.40
2018-05-18T00:51:07.884Z,87.30
2018-05-18T00:53:34.243Z,87.00
2018-05-18T00:56:00.544Z,87.10
2018-05-18T00:58:26.872Z,87.40
2018-05-18T01:00:53.266Z,87.50
2018-05-18T01:03:19.605Z,86.90
2018-05-18T01:05:45.888Z,87.60
2018-05-18T01:08:13.015Z,86.70
2018-05-18T01:10:39.281Z,86.60
2018-05-18T01:13:08.744Z,86.40
2018-05-18T01:15:35.418Z,86.90
2018-05-18T01:18:01.788Z,86.40
2018-05-18T01:20:28.082Z,86.40
2018-05-18T01:22:54.456Z,86.40
2018-05-18T01:25:20.821Z,86.00
2018-05-18T01:27:47.951Z,86.00
2018-05-18T01:30:14.312Z,86.70
2018-05-18T01:32:40.606Z,85.70
2018-05-18T01:35:07.037Z,85.20
2018-05-18T01:37:33.445Z,85.10
2018-05-18T01:39:59.855Z,85.90
2018-05-18T01:42:26.182Z,85.00
2018-05-18T01:44:52.764Z,84.90
2018-05-18T01:47:19.134Z,84.30
2018-05-18T01:49:45.540Z,84.70
2018-05-18T01:52:11.900Z,84.30
2018-05-18T01:54:39.005Z,83.90
2018-05-18T01:57:05.400Z,83.60
2018-05-18T01:59:31.724Z,82.60
2018-05-18T02:01:58.015Z,81.40
2018-05-18T02:04:24.277Z,81.50
2018-05-18T02:06:51.389Z,81.50
2018-05-18T02:09:17.756Z,81.50
2018-05-18T02:11:44.871Z,81.80
2018-05-18T02:14:13.303Z,81.70
2018-05-18T02:16:39.612Z,81.10
2018-05-18T02:19:05.960Z,81.30
2018-05-18T02:21:32.335Z,81.50
2018-05-18T02:23:58.694Z,81.50
2018-05-18T02:26:25.781Z,81.80
2018-05-18T02:28:52.189Z,81.80
2018-05-18T02:31:18.451Z,81.60
2018-05-18T02:33:44.726Z,81.40
2018-05-18T02:36:11.098Z,83.50
2018-05-18T02:38:37.509Z,86.30
2018-05-18T02:41:03.872Z,81.40
2018-05-18T02:43:30.196Z,80.80
2018-05-18T02:46:01.780Z,80.30
2018-05-18T02:48:28.070Z,80.30
2018-05-18T02:50:55.141Z,79.60
2018-05-18T02:53:21.592Z,79.60
2018-05-18T02:55:48.671Z,80.20
2018-05-18T02:58:14.976Z,80.20
2018-05-18T03:00:41.282Z,80.10
2018-05-18T03:03:07.619Z,81.00
2018-05-18T03:05:34.011Z,80.60
2018-05-18T03:08:01.151Z,80.70
2018-05-18T03:10:27.463Z,80.70
2018-05-18T03:12:53.866Z,80.80
2018-05-18T03:15:21.153Z,79.90
2018-05-18T03:17:47.505Z,79.70
2018-05-18T03:20:13.839Z,79.80
2018-05-18T03:22:40.258Z,80.10
2018-05-18T03:25:06.663Z,80.70
2018-05-18T03:27:33.032Z,81.10
2018-05-18T03:29:59.427Z,81.00
2018-05-18T03:32:26.099Z,81.60
2018-05-18T03:34:52.429Z,81.30
2018-05-18T03:37:18.837Z,80.00
2018-05-18T03:39:45.881Z,78.60
2018-05-18T03:42:12.225Z,78.60
2018-05-18T03:44:38.560Z,78.90
2018-05-18T03:47:04.851Z,79.40
2018-05-18T03:49:31.186Z,76.90
2018-05-18T03:51:57.564Z,76.90
2018-05-18T03:54:24.202Z,77.00
2018-05-18T03:56:50.514Z,77.10
2018-05-18T03:59:16.853Z,77.40
2018-05-18T04:01:56.257Z,76.40
2018-05-18T04:04:34.729Z,76.30
2018-05-18T04:07:13.200Z,76.90
2018-05-18T04:09:39.562Z,76.20
2018-05-18T04:12:05.952Z,76.40
2018-05-18T04:14:33.005Z,76.40
2018-05-18T04:17:00.094Z,76.90
2018-05-18T04:19:26.435Z,76.90
2018-05-18T04:21:52.869Z,75.60
2018-05-18T04:24:19.247Z,76.30
2018-05-18T04:26:45.614Z,75.50
2018-05-18T04:29:11.969Z,74.70
2018-05-18T04:31:38.323Z,73.60
2018-05-18T04:34:05.422Z,75.50
2018-05-18T04:36:31.814Z,74.70
2018-05-18T04:38:58.214Z,73.90
2018-05-18T04:41:24.530Z,74.40
2018-05-18T04:43:50.853Z,73.90
2018-05-18T04:46:17.148Z,72.70
2018-05-18T04:48:43.561Z,72.80
2018-05-18T04:51:09.886Z,74.50
2018-05-18T04:53:36.176Z,73.90
2018-05-18T04:56:02.586Z,73.10
2018-05-18T04:58:29.724Z,74.00
2018-05-18T05:00:56.104Z,73.90
2018-05-18T05:03:22.563Z,71.50
2018-05-18T05:05:49.073Z,72.70
2018-05-18T05:08:15.563Z,72.00
2018-05-18T05:10:42.014Z,70.10
2018-05-18T05:13:08.521Z,69.90
2018-05-18T05:15:35.661Z,69.60
2018-05-18T05:18:02.107Z,68.90
2018-05-18T05:20:28.685Z,70.30
2018-05-18T05:22:55.087Z,69.30
2018-05-18T05:25:21.571Z,70.30
2018-05-18T05:27:48.782Z,67.20
2018-05-18T05:30:15.217Z,67.20
2018-05-18T05:32:41.712Z,68.00
2018-05-18T05:35:08.239Z,67.70
2018-05-18T05:37:35.581Z,68.60
2018-05-18T05:40:02.029Z,67.80
2018-05-18T05:42:28.377Z,69.00
2018-05-18T05:44:54.730Z,68.00
2018-05-18T05:47:21.188Z,66.70
2018-05-18T05:49:47.543Z,68.30
2018-05-18T05:52:14.097Z,67.70
2018-05-18T05:54:40.512Z,67.50
2018-05-18T05:57:06.904Z,66.80
2018-05-18T05:59:34.049Z,66.60
2018-05-18T06:02:00.540Z,66.50
2018-05-18T06:04:26.946Z,65.40
2018-05-18T06:06:53.393Z,66.60
2018-05-18T06:09:19.796Z,63.60
2018-05-18T06:11:46.294Z,63.50
2018-05-18T06:14:12.879Z,64.10
2018-05-18T06:16:39.177Z,65.80
2018-05-18T06:19:05.816Z,64.20
2018-05-18T06:21:32.852Z,63.90
2018-05-18T06:23:59.240Z,68.30
2018-05-18T06:26:25.722Z,62.90
2018-05-18T06:28:52.228Z,61.90
2018-05-18T06:31:19.347Z,62.10
2018-05-18T06:33:45.769Z,62.10
2018-05-18T06:36:12.191Z,63.30
2018-05-18T06:38:39.341Z,61.70
2018-05-18T06:41:06.035Z,61.70
2018-05-18T06:43:32.557Z,60.60
2018-05-18T06:45:59.761Z,64.10
2018-05-18T06:48:26.206Z,64.10
2018-05-18T06:50:52.571Z,62.10
2018-05-18T06:53:19.030Z,60.60
2018-05-18T06:55:45.495Z,60.20
2018-05-18T06:58:11.958Z,58.50
2018-05-18T07:00:39.126Z,58.50
2018-05-18T07:03:05.542Z,59.20
2018-05-18T07:05:32.025Z,57.80
2018-05-18T07:07:58.472Z,57.70
2018-05-18T07:10:24.945Z,59.20
2018-05-18T07:12:51.514Z,57.50
2018-05-18T07:15:18.015Z,59.00
2018-05-18T07:17:44.406Z,56.90
2018-05-18T07:20:10.873Z,56.90
2018-05-18T07:22:38.012Z,56.30
2018-05-18T07:25:04.420Z,56.20
2018-05-18T07:27:30.875Z,57.60
2018-05-18T07:29:57.314Z,58.50
2018-05-18T07:32:23.733Z,57.80
2018-05-18T07:34:50.979Z,58.90
2018-05-18T07:37:18.136Z,58.80
2018-05-18T07:39:44.562Z,58.50
2018-05-18T07:42:10.980Z,58.50
2018-05-18T07:44:37.416Z,58.40
2018-05-18T07:47:03.838Z,58.60
2018-05-18T07:49:31.035Z,58.50
2018-05-18T07:51:57.430Z,58.40
2018-05-18T07:54:23.824Z,57.80
2018-05-18T07:56:50.621Z,59.50
2018-05-18T07:59:17.769Z,58.60
2018-05-18T08:01:44.173Z,58.00
2018-05-18T08:04:10.598Z,57.30
2018-05-18T08:06:37.797Z,57.90
2018-05-18T08:09:05.335Z,57.90
2018-05-18T08:11:32.432Z,58.00
2018-05-18T08:13:59.055Z,58.00
2018-05-18T08:16:25.748Z,58.20
2018-05-18T08:18:52.157Z,58.20
2018-05-18T08:21:18.521Z,58.20
2018-05-18T08:23:45.028Z,57.30
2018-05-18T08:26:11.438Z,57.50
2018-05-18T08:28:50.438Z,57.90
2018-05-18T08:31:16.919Z,58.10
2018-05-18T08:33:43.391Z,58.30
2018-05-18T08:36:09.796Z,58.10
2018-05-18T08:38:36.169Z,56.30
2018-05-18T08:41:02.591Z,56.80
2018-05-18T08:43:29.058Z,56.00
2018-05-18T08:45:55.497Z,56.70
2018-05-18T08:48:21.946Z,56.40
2018-05-18T08:50:48.391Z,56.00
2018-05-18T08:53:14.782Z,56.10
2018-05-18T08:55:41.243Z,56.90
2018-05-18T08:58:07.690Z,55.20
2018-05-18T09:00:34.171Z,56.50
2018-05-18T09:03:01.237Z,53.70
2018-05-18T09:05:27.663Z,53.50
2018-05-18T09:07:54.100Z,55.20
2018-05-18T09:10:22.596Z,55.60
2018-05-18T09:12:48.972Z,54.90
2018-05-18T09:15:16.278Z,55.00
2018-05-18T09:17:43.465Z,55.50
2018-05-18T09:20:11.067Z,55.50
2018-05-18T09:22:37.533Z,55.70
2018-05-18T09:25:03.964Z,56.10
2018-05-18T09:27:30.356Z,54.80
2018-05-18T09:29:57.081Z,55.00
2018-05-18T09:32:24.361Z,56.20
2018-05-18T09:34:50.767Z,56.20
2018-05-18T09:37:17.213Z,56.60
2018-05-18T09:39:43.820Z,55.00
2018-05-18T09:42:10.212Z,55.80
2018-05-18T09:44:36.583Z,55.90
2018-05-18T09:47:02.963Z,55.30
2018-05-18T09:49:29.387Z,57.30
2018-05-18T09:51:56.505Z,55.70
2018-05-18T09:54:22.962Z,55.70
2018-05-18T09:56:49.392Z,56.00
2018-05-18T09:59:15.826Z,56.10
2018-05-18T10:01:42.256Z,57.70
2018-05-18T10:04:08.707Z,56.70
2018-05-18T10:06:35.188Z,56.70
2018-05-18T10:09:01.653Z,58.00
2018-05-18T10:11:28.049Z,56.50
2018-05-18T10:13:54.607Z,57.40
2018-05-18T10:16:21.082Z,56.20
2018-05-18T10:18:48.285Z,55.10
2018-05-18T10:21:14.653Z,55.00
2018-05-18T10:23:41.123Z,56.40
2018-05-18T10:26:07.590Z,56.30
2018-05-18T10:28:34.882Z,54.50
2018-05-18T10:31:03.255Z,54.50
2018-05-18T10:33:30.422Z,54.70
2018-05-18T10:35:57.500Z,54.10
2018-05-18T10:38:23.938Z,54.10
2018-05-18T10:40:50.383Z,55.70
2018-05-18T10:43:17.486Z,55.40
2018-05-18T10:45:43.913Z,55.40
2018-05-18T10:48:10.393Z,55.50
2018-05-18T10:50:36.761Z,55.40
2018-05-18T10:53:03.152Z,55.60
2018-05-18T10:55:29.476Z,55.10
2018-05-18T10:57:55.900Z,53.60
2018-05-18T11:00:22.319Z,54.30
2018-05-18T11:02:48.799Z,53.30
2018-05-18T11:05:15.185Z,51.60
2018-05-18T11:07:41.666Z,52.30
2018-05-18T11:10:08.091Z,51.80
2018-05-18T11:12:34.605Z,51.30
2018-05-18T11:15:01.021Z,51.70
2018-05-18T11:17:27.374Z,50.70
2018-05-18T11:19:54.536Z,52.30
2018-05-18T11:22:20.880Z,52.20
2018-05-18T11:24:47.974Z,52.30
2018-05-18T11:27:14.350Z,52.30
2018-05-18T11:29:40.762Z,53.70
2018-05-18T11:32:07.168Z,51.70
2018-05-18T11:34:35.361Z,51.60
2018-05-18T11:37:01.786Z,51.60
2018-05-18T11:39:28.246Z,52.00
2018-05-18T11:41:54.634Z,51.40
2018-05-18T11:44:21.049Z,50.70
2018-05-18T11:46:47.558Z,51.00
2018-05-18T11:49:14.094Z,52.90
2018-05-18T11:51:40.432Z,53.20
2018-05-18T11:54:06.780Z,53.30
2018-05-18T11:56:33.302Z,51.50
2018-05-18T11:58:59.699Z,51.80
2018-05-18T12:01:26.127Z,52.10
2018-05-18T12:03:52.562Z,51.90
2018-05-18T12:06:18.942Z,52.70
2018-05-18T12:08:45.409Z,52.90
2018-05-18T12:11:30.115Z,52.30
2018-05-18T12:14:14.828Z,49.90
2018-05-18T12:16:59.480Z,50.40
2018-05-18T12:19:25.920Z,50.40
2018-05-18T12:21:52.407Z,49.60
2018-05-18T12:24:18.740Z,50.00
2018-05-18T12:26:45.222Z,50.90
2018-05-18T12:29:11.604Z,50.50
2018-05-18T12:31:38.073Z,51.10
2018-05-18T12:34:05.175Z,50.40
2018-05-18T12:36:31.493Z,50.40
2018-05-18T12:38:57.805Z,49.80
2018-05-18T12:41:24.171Z,51.00
2018-05-18T12:43:51.564Z,49.30
2018-05-18T12:46:18.733Z,49.20
2018-05-18T12:48:45.751Z,48.80
2018-05-18T12:51:12.124Z,48.80
2018-05-18T12:53:39.452Z,48.50
2018-05-18T12:56:05.820Z,47.80
2018-05-18T12:58:32.148Z,48.70
2018-05-18T13:00:58.497Z,48.70
2018-05-18T13:03:24.841Z,49.00
2018-05-18T13:05:51.367Z,48.30
2018-05-18T13:08:17.753Z,49.30
2018-05-18T13:10:44.115Z,49.60
2018-05-18T13:13:11.529Z,48.30
2018-05-18T13:15:37.874Z,48.10
2018-05-18T13:18:04.296Z,47.70
2018-05-18T13:20:30.637Z,48.40
2018-05-18T13:22:56.948Z,50.10
2018-05-18T13:25:23.290Z,50.40
2018-05-18T13:27:52.642Z,50.80
2018-05-18T13:30:19.048Z,50.80
2018-05-18T13:32:45.486Z,50.30
2018-05-18T13:35:11.817Z,49.90
2018-05-18T13:37:38.298Z,50.20
2018-05-18T13:40:04.767Z,50.70
2018-05-18T13:42:31.060Z,49.60
2018-05-18T13:44:59.522Z,48.50
2018-05-18T13:47:25.913Z,48.70
2018-05-18T13:49:53.258Z,48.20
2018-05-18T13:52:19.617Z,48.10
2018-05-18T13:54:45.906Z,48.00
2018-05-18T13:57:13.113Z,49.10
2018-05-18T13:59:39.408Z,49.10
2018-05-18T14:02:05.734Z,48.90
2018-05-18T14:04:32.017Z,50.20
2018-05-18T14:06:59.106Z,48.60
2018-05-18T14:09:25.417Z,48.60
2018-05-18T14:11:51.871Z,47.60
2018-05-18T14:14:18.249Z,48.70
2018-05-18T14:16:44.621Z,48.50
2018-05-18T14:19:10.937Z,48.60
2018-05-18T14:21:37.982Z,50.00
2018-05-18T14:24:04.436Z,50.00
2018-05-18T14:26:31.900Z,50.80
2018-05-18T14:28:58.196Z,50.90
2018-05-18T14:31:24.491Z,51.20
2018-05-18T14:33:50.874Z,51.60
2018-05-18T14:36:18.483Z,50.10
2018-05-18T14:38:44.917Z,50.70
2018-05-18T14:41:11.270Z,51.00
2018-05-18T14:43:37.602Z,51.00
2018-05-18T14:46:03.921Z,49.80
2018-05-18T14:48:30.380Z,50.10
2018-05-18T14:50:56.771Z,50.10
2018-05-18T14:53:23.205Z,50.60
2018-05-18T14:55:49.718Z,50.20
2018-05-18T14:58:16.165Z,48.50
2018-05-18T15:00:42.574Z,50.20
2018-05-18T15:03:09.608Z,49.40
2018-05-18T15:05:36.025Z,49.50
2018-05-18T15:08:02.287Z,50.40
2018-05-18T15:10:28.715Z,49.00
2018-05-18T15:12:55.871Z,49.90
2018-05-18T15:15:22.218Z,49.50
2018-05-18T15:17:48.681Z,48.00
2018-05-18T15:20:15.033Z,48.10
2018-05-18T15:22:41.383Z,49.60
2018-05-18T15:25:07.748Z,48.10
2018-05-18T15:27:34.209Z,48.20
2018-05-18T15:30:01.613Z,49.40
2018-05-18T15:32:27.996Z,49.30
2018-05-18T15:34:54.386Z,50.10
2018-05-18T15:37:20.808Z,52.10
2018-05-18T15:39:47.107Z,51.10
2018-05-18T15:42:14.342Z,50.30
2018-05-18T15:44:40.762Z,50.30
2018-05-18T15:47:07.971Z,50.10
2018-05-18T15:49:34.436Z,50.10
2018-05-18T15:52:00.815Z,50.00
2018-05-18T15:54:27.868Z,50.30
2018-05-18T15:56:54.204Z,50.30
2018-05-18T15:59:21.559Z,50.40
2018-05-18T16:01:48.052Z,50.40
2018-05-18T16:04:14.470Z,51.30
2018-05-18T16:06:40.740Z,50.80
2018-05-18T16:09:08.269Z,50.40
2018-05-18T16:11:36.727Z,50.40
2018-05-18T16:14:03.114Z,51.00
2018-05-18T16:16:31.237Z,52.50
2018-05-18T16:18:58.665Z,52.50
2018-05-18T16:21:25.102Z,52.20
2018-05-18T16:23:51.458Z,52.00
2018-05-18T16:26:18.540Z,51.50
2018-05-18T16:28:44.879Z,52.00
2018-05-18T16:31:12.026Z,53.40
2018-05-18T16:33:38.425Z,53.20
2018-05-18T16:36:04.868Z,53.60
2018-05-18T16:38:31.381Z,53.20
2018-05-18T16:41:01.239Z,54.00
2018-05-18T16:43:27.613Z,53.90
2018-05-18T16:45:54.064Z,53.30
2018-05-18T16:48:20.455Z,54.30
2018-05-18T16:50:46.907Z,54.20
2018-05-18T16:53:13.324Z,54.00
2018-05-18T16:55:39.833Z,54.70
2018-05-18T16:58:06.153Z,54.30
2018-05-18T17:00:32.535Z,54.50
2018-05-18T17:02:58.970Z,55.10
2018-05-18T17:05:25.356Z,55.60
2018-05-18T17:07:51.760Z,56.20
2018-05-18T17:10:18.159Z,56.30
2018-05-18T17:12:44.538Z,57.00
2018-05-18T17:15:10.925Z,57.30
2018-05-18T17:17:38.074Z,57.50
2018-05-18T17:20:04.539Z,57.50
2018-05-18T17:22:31.677Z,58.10
2018-05-18T17:24:58.121Z,58.10
2018-05-18T17:27:24.496Z,57.30
2018-05-18T17:29:51.849Z,57.50
2018-05-18T17:32:18.206Z,57.60
2018-05-18T17:34:45.317Z,58.40
2018-05-18T17:37:11.755Z,58.40
2018-05-18T17:39:38.187Z,58.50
2018-05-18T17:42:04.619Z,59.40
2018-05-18T17:44:33.099Z,59.10
2018-05-18T17:47:00.220Z,59.40
2018-05-18T17:49:26.656Z,59.20
2018-05-18T17:51:53.063Z,59.00
2018-05-18T17:54:19.564Z,59.20
2018-05-18T17:56:45.929Z,59.70
2018-05-18T17:59:15.039Z,59.70
2018-05-18T18:01:42.161Z,59.60
2018-05-18T18:04:08.531Z,59.50
2018-05-18T18:06:34.826Z,59.10
2018-05-18T18:09:01.251Z,59.70
2018-05-18T18:11:27.783Z,61.00
2018-05-18T18:13:54.942Z,61.10
2018-05-18T18:16:21.285Z,61.00
2018-05-18T18:18:47.657Z,60.10
2018-05-18T18:21:14.040Z,60.90
2018-05-18T18:23:40.531Z,61.00
2018-05-18T18:26:07.669Z,61.00
2018-05-18T18:28:34.087Z,60.90
2018-05-18T18:31:00.352Z,60.80
2018-05-18T18:33:26.802Z,61.10
2018-05-18T18:35:53.182Z,60.90
2018-05-18T18:38:19.522Z,61.70
2018-05-18T18:40:45.905Z,63.50
2018-05-18T18:43:12.657Z,60.20
2018-05-18T18:45:39.176Z,60.70
2018-05-18T18:48:05.523Z,60.90
2018-05-18T18:50:31.932Z,61.80
2018-05-18T18:52:59.017Z,65.20
2018-05-18T18:55:25.457Z,65.20
2018-05-18T18:57:51.904Z,62.00
2018-05-18T19:00:18.405Z,62.50
2018-05-18T19:02:44.764Z,63.20
2018-05-18T19:05:13.218Z,63.50
2018-05-18T19:07:39.541Z,63.90
2018-05-18T19:10:05.938Z,63.30
2018-05-18T19:12:34.430Z,63.60
2018-05-18T19:15:02.381Z,63.30
2018-05-18T19:17:28.666Z,63.30
2018-05-18T19:19:55.035Z,63.90
2018-05-18T19:22:22.765Z,64.20
2018-05-18T19:24:49.554Z,63.90
2018-05-18T19:27:16.659Z,64.70
2018-05-18T19:29:46.979Z,64.60
2018-05-18T19:32:13.412Z,64.50
2018-05-18T19:34:39.777Z,64.50
2018-05-18T19:37:06.185Z,65.00
2018-05-18T19:39:33.279Z,65.50
2018-05-18T19:42:03.025Z,65.50
2018-05-18T19:44:29.380Z,65.50
2018-05-18T19:46:55.760Z,65.60
2018-05-18T19:49:22.830Z,66.00
2018-05-18T19:51:49.964Z,66.20
2018-05-18T19:54:16.315Z,66.20
2018-05-18T19:56:42.626Z,66.60
2018-05-18T19:59:09.031Z,66.60
2018-05-18T20:01:35.444Z,68.20
2018-05-18T20:04:02.887Z,66.40
2018-05-18T20:06:29.581Z,66.30
2018-05-18T20:08:55.992Z,66.60
2018-05-18T20:11:22.370Z,66.60
2018-05-18T20:13:49.543Z,67.10
2018-05-18T20:16:17.941Z,67.10
2018-05-18T20:18:45.081Z,67.70
2018-05-18T20:21:12.142Z,67.30
2018-05-18T20:23:39.288Z,67.40
2018-05-18T20:26:07.724Z,67.30
2018-05-18T20:28:34.124Z,67.30
2018-05-18T20:31:02.505Z,67.70
2018-05-18T20:33:28.901Z,68.50
2018-05-18T20:35:55.337Z,66.90
2018-05-18T20:38:23.699Z,67.30
2018-05-18T20:40:50.744Z,66.90
2018-05-18T20:43:17.141Z,66.90
2018-05-18T20:45:49.558Z,67.20
2018-05-18T20:48:15.922Z,67.10
2018-05-18T20:50:42.275Z,66.70
2018-05-18T20:53:13.542Z,67.10
2018-05-18T20:55:39.911Z,67.10
2018-05-18T20:58:06.950Z,67.20
2018-05-18T21:00:35.333Z,67.20
2018-05-18T21:03:01.803Z,66.70
2018-05-18T21:05:30.006Z,67.50
2018-05-18T21:07:56.410Z,67.40
2018-05-18T21:10:22.874Z,66.70
2018-05-18T21:12:49.975Z,66.70
2018-05-18T21:15:16.393Z,66.70
2018-05-18T21:17:43.435Z,66.80
2018-05-18T21:20:09.839Z,66.80
2018-05-18T21:22:36.166Z,67.10
2018-05-18T21:25:02.519Z,67.30
2018-05-18T21:27:28.879Z,67.40
2018-05-18T21:29:55.255Z,67.60
2018-05-18T21:32:23.681Z,67.20
2018-05-18T21:34:50.114Z,67.70
2018-05-18T21:37:17.234Z,68.20
2018-05-18T21:39:43.592Z,68.10
2018-05-18T21:42:09.995Z,68.00
2018-05-18T21:44:36.404Z,68.20
2018-05-18T21:47:03.596Z,68.40
2018-05-18T21:49:29.988Z,68.20
2018-05-18T21:51:56.460Z,68.30
2018-05-18T21:54:23.643Z,69.10
2018-05-18T21:56:50.001Z,69.10
2018-05-18T21:59:16.346Z,69.30
2018-05-18T22:01:42.721Z,69.80
2018-05-18T22:04:10.111Z,69.80
2018-05-18T22:06:36.512Z,69.90
2018-05-18T22:09:02.902Z,70.40
2018-05-18T22:11:30.037Z,70.90
2018-05-18T22:13:56.473Z,70.90
2018-05-18T22:16:22.902Z,71.40
2018-05-18T22:18:49.230Z,71.90
2018-05-18T22:21:15.635Z,72.20
2018-05-18T22:23:42.038Z,72.30
2018-05-18T22:26:08.427Z,72.40
2018-05-18T22:28:34.835Z,72.60
2018-05-18T22:31:01.312Z,72.70
2018-05-18T22:33:27.721Z,72.60
2018-05-18T22:35:54.976Z,72.60
2018-05-18T22:38:21.387Z,73.30
2018-05-18T22:40:47.873Z,73.40
2018-05-18T22:43:14.267Z,74.00
2018-05-18T22:45:44.059Z,73.70
2018-05-18T22:48:10.471Z,73.90
2018-05-18T22:50:36.839Z,74.60
2018-05-18T22:53:03.359Z,74.40
2018-05-18T22:55:29.723Z,74.50
2018-05-18T22:57:56.150Z,74.90
2018-05-18T23:00:23.405Z,75.00
2018-05-18T23:02:50.438Z,75.10
2018-05-18T23:05:21.687Z,75.10
2018-05-18T23:07:48.174Z,75.10
2018-05-18T23:10:14.692Z,75.40
2018-05-18T23:12:41.049Z,75.30
2018-05-18T23:15:08.335Z,75.10
2018-05-18T23:17:34.718Z,75.10
2018-05-18T23:20:01.082Z,76.00
2018-05-18T23:22:27.515Z,75.80
2018-05-18T23:24:53.950Z,76.10
2018-05-18T23:27:20.374Z,76.20
2018-05-18T23:29:46.735Z,76.60
2018-05-18T23:32:13.114Z,76.70
2018-05-18T23:34:39.483Z,77.10
2018-05-18T23:37:06.495Z,77.30
2018-05-18T23:39:33.620Z,77.20
2018-05-18T23:41:59.980Z,77.10
2018-05-18T23:44:26.349Z,76.90
2018-05-18T23:46:52.718Z,77.10
2018-05-18T23:49:19.805Z,77.40
2018-05-18T23:51:46.320Z,77.40
2018-05-18T23:54:12.700Z,78.00
2018-05-18T23:56:39.047Z,78.50
2018-05-18T23:59:05.492Z,78.90
